Airfield :







YOU CAN JOIN US ON...

 
LOGIN :

Register | Disclaimer

   EN    FR    IT 

 









Legend :    VFR   Marginal VFR   IFR   Intensive IFR   Very Intensive IFR
Visi :
Ceiling :
>= 8 km
>= 3000ft
5 to 8 km
1000 to 3000 ft
1500m to 5 km
500 to 1000 ft
800 to 1500m
200 to 500 ft
< 800m
< 200 ft
Symbols :   Thunderstorms  Fog  Heavy snow  Heavy precipitations  Wind > 20 kt







- Airport Elevation : 171 ft
- IATA code : KEF


BIKF - Keflavik International

CURRENT METAR :
  • 230400Z 27027G38KT 9999 FEW030 SCT040 M00/M09 Q1002

EXPIRED METARs :
  • 230330Z 27027G37KT 9999 FEW012CB SCT038 M00/M07 Q1001
  • 230300Z 27029KT 9999 FEW012CB SCT040 M00/M08 Q1000 REGS
  • 230230Z 28032G43KT 5000 -SHSN BLSN FEW004 SCT012CB BKN037 M01/M03 Q0999 REGS
  • 230200Z 27039G52KT 0500 R28/0500D -SHGS BLSN SCT004 BKN017CB BKN055 M02/M02 Q0998
  • 230130Z 28032G47KT 1200 R28/1300U SN BLSN VV003 M01/M03 Q0998

TAF TAF BIKF
Valid from the 23 at 03:00 until the 24 at 03:00 UTC


230100Z 2303/2403 28028KT 9999 -SHSN SCT018 BKN025 TX04/2315Z TNM01/2303Z
TEMPO 2303/2304 28033G45KT 0800 SHSN BKN005 OVC010CB
BECMG 2305/2307 18010KT
BECMG 2307/2309 15016G26KT 2000 SNRA BKN008 OVC015
BECMG 2311/2314 23022KT 9999 -SHRASN BKN025
TEMPO 2314/2403 5000 SHRASN BKN014CB
BECMG 2401/2403 30020KT
No reported NOTAMs for that airfield.



MET'MAP, your aeronautical weather chart ! - Copyright ORBIFLY December 2007 - Disclaimer

ORBIFLY MET'MAP TEAM :

Programming & Development : Alexandra Zaïnal
Concept & Development : Baudouin d'Aumeries
Co-Development & Prog : Marc-Olivier Méhu
Technical & hardware support : Manuel Goepfert

Contact : metmap@orbifly.com




SOURCES & CREDITS :

   NOAA